sensor_id;sensor_type;location;lat;lon;timestamp;P1;durP1;ratioP1;P2;durP2;ratioP2
35969;SDS011;22448;51.298;6.430;2023-02-12T00:01:20;141.48;;;63.45;;
35969;SDS011;22448;51.298;6.430;2023-02-12T00:03:48;133.55;;;64.45;;
35969;SDS011;22448;51.298;6.430;2023-02-12T00:06:15;134.00;;;63.17;;
35969;SDS011;22448;51.298;6.430;2023-02-12T00:08:43;132.05;;;63.47;;
35969;SDS011;22448;51.298;6.430;2023-02-12T00:11:13;137.68;;;62.92;;
35969;SDS011;22448;51.298;6.430;2023-02-12T00:13:42;147.57;;;67.93;;
35969;SDS011;22448;51.298;6.430;2023-02-12T00:16:11;150.35;;;70.10;;
35969;SDS011;22448;51.298;6.430;2023-02-12T00:18:40;141.85;;;64.20;;
35969;SDS011;22448;51.298;6.430;2023-02-12T00:21:08;134.57;;;63.78;;
35969;SDS011;22448;51.298;6.430;2023-02-12T00:23:36;137.50;;;65.75;;
35969;SDS011;22448;51.298;6.430;2023-02-12T00:26:05;133.93;;;64.03;;
35969;SDS011;22448;51.298;6.430;2023-02-12T00:28:34;140.95;;;63.58;;
35969;SDS011;22448;51.298;6.430;2023-02-12T00:31:08;134.25;;;62.72;;
35969;SDS011;22448;51.298;6.430;2023-02-12T00:33:38;136.32;;;65.40;;
35969;SDS011;22448;51.298;6.430;2023-02-12T00:36:05;133.70;;;62.03;;
35969;SDS011;22448;51.298;6.430;2023-02-12T00:38:33;132.10;;;63.17;;
35969;SDS011;22448;51.298;6.430;2023-02-12T00:41:01;138.85;;;63.10;;
35969;SDS011;22448;51.298;6.430;2023-02-12T00:43:28;119.65;;;61.90;;
35969;SDS011;22448;51.298;6.430;2023-02-12T00:45:55;129.63;;;62.45;;
35969;SDS011;22448;51.298;6.430;2023-02-12T00:48:25;135.82;;;63.00;;
35969;SDS011;22448;51.298;6.430;2023-02-12T00:50:52;132.45;;;64.15;;
35969;SDS011;22448;51.298;6.430;2023-02-12T00:53:19;135.32;;;63.85;;
35969;SDS011;22448;51.298;6.430;2023-02-12T00:55:46;132.43;;;63.22;;
35969;SDS011;22448;51.298;6.430;2023-02-12T00:58:13;134.07;;;64.05;;
35969;SDS011;22448;51.298;6.430;2023-02-12T01:00:44;133.45;;;62.60;;
35969;SDS011;22448;51.298;6.430;2023-02-12T01:03:11;131.82;;;62.88;;
35969;SDS011;22448;51.298;6.430;2023-02-12T01:05:38;131.95;;;62.40;;
35969;SDS011;22448;51.298;6.430;2023-02-12T01:08:05;136.90;;;64.72;;
35969;SDS011;22448;51.298;6.430;2023-02-12T01:10:32;132.73;;;63.00;;
35969;SDS011;22448;51.298;6.430;2023-02-12T01:13:00;145.82;;;62.10;;
35969;SDS011;22448;51.298;6.430;2023-02-12T01:15:27;136.02;;;63.78;;
35969;SDS011;22448;51.298;6.430;2023-02-12T01:17:55;138.50;;;63.65;;
35969;SDS011;22448;51.298;6.430;2023-02-12T01:20:25;143.93;;;62.92;;
35969;SDS011;22448;51.298;6.430;2023-02-12T01:22:52;126.55;;;61.05;;
35969;SDS011;22448;51.298;6.430;2023-02-12T01:25:19;130.82;;;62.17;;
35969;SDS011;22448;51.298;6.430;2023-02-12T01:27:46;129.25;;;61.55;;
35969;SDS011;22448;51.298;6.430;2023-02-12T01:30:14;128.75;;;61.83;;
35969;SDS011;22448;51.298;6.430;2023-02-12T01:32:42;120.32;;;60.20;;
35969;SDS011;22448;51.298;6.430;2023-02-12T01:35:09;129.45;;;63.10;;
35969;SDS011;22448;51.298;6.430;2023-02-12T01:37:39;134.18;;;62.70;;
35969;SDS011;22448;51.298;6.430;2023-02-12T01:40:07;126.65;;;61.78;;
35969;SDS011;22448;51.298;6.430;2023-02-12T01:42:34;130.55;;;63.25;;
35969;SDS011;22448;51.298;6.430;2023-02-12T01:47:40;130.65;;;60.53;;
35969;SDS011;22448;51.298;6.430;2023-02-12T01:50:14;130.57;;;62.63;;
35969;SDS011;22448;51.298;6.430;2023-02-12T01:52:45;130.55;;;60.65;;
35969;SDS011;22448;51.298;6.430;2023-02-12T01:55:16;132.00;;;62.08;;
35969;SDS011;22448;51.298;6.430;2023-02-12T01:57:46;133.23;;;62.10;;
35969;SDS011;22448;51.298;6.430;2023-02-12T02:00:16;123.72;;;60.90;;
35969;SDS011;22448;51.298;6.430;2023-02-12T02:02:50;94.97;;;44.47;;
35969;SDS011;22448;51.298;6.430;2023-02-12T02:05:23;132.23;;;62.95;;
35969;SDS011;22448;51.298;6.430;2023-02-12T02:07:59;127.95;;;60.70;;
35969;SDS011;22448;51.298;6.430;2023-02-12T02:10:28;126.40;;;59.63;;
35969;SDS011;22448;51.298;6.430;2023-02-12T02:12:55;125.82;;;60.92;;
35969;SDS011;22448;51.298;6.430;2023-02-12T02:15:41;125.57;;;61.15;;
35969;SDS011;22448;51.298;6.430;2023-02-12T02:23:29;128.90;;;61.08;;
35969;SDS011;22448;51.298;6.430;2023-02-12T02:29:02;120.65;;;60.17;;
35969;SDS011;22448;51.298;6.430;2023-02-12T02:37:04;124.93;;;60.55;;
35969;SDS011;22448;51.298;6.430;2023-02-12T02:39:38;129.27;;;60.55;;
35969;SDS011;22448;51.298;6.430;2023-02-12T02:42:22;131.13;;;59.92;;
35969;SDS011;22448;51.298;6.430;2023-02-12T02:45:02;129.50;;;59.78;;
35969;SDS011;22448;51.298;6.430;2023-02-12T02:47:45;129.70;;;61.72;;
35969;SDS011;22448;51.298;6.430;2023-02-12T02:50:17;120.22;;;58.78;;
35969;SDS011;22448;51.298;6.430;2023-02-12T02:52:52;123.60;;;59.30;;
35969;SDS011;22448;51.298;6.430;2023-02-12T02:55:25;124.97;;;58.88;;
35969;SDS011;22448;51.298;6.430;2023-02-12T02:58:03;123.15;;;58.90;;
35969;SDS011;22448;51.298;6.430;2023-02-12T03:00:43;124.47;;;61.08;;
35969;SDS011;22448;51.298;6.430;2023-02-12T03:03:25;119.03;;;59.17;;
35969;SDS011;22448;51.298;6.430;2023-02-12T03:06:11;128.05;;;59.55;;
35969;SDS011;22448;51.298;6.430;2023-02-12T03:08:47;115.53;;;56.42;;
35969;SDS011;22448;51.298;6.430;2023-02-12T03:13:49;128.32;;;59.40;;
35969;SDS011;22448;51.298;6.430;2023-02-12T03:16:27;121.32;;;58.97;;
35969;SDS011;22448;51.298;6.430;2023-02-12T03:19:14;116.28;;;57.97;;
35969;SDS011;22448;51.298;6.430;2023-02-12T03:21:46;124.13;;;58.85;;
35969;SDS011;22448;51.298;6.430;2023-02-12T03:24:31;125.90;;;58.53;;
35969;SDS011;22448;51.298;6.430;2023-02-12T03:27:09;120.57;;;58.40;;
35969;SDS011;22448;51.298;6.430;2023-02-12T03:29:44;115.95;;;57.00;;
35969;SDS011;22448;51.298;6.430;2023-02-12T03:37:32;118.97;;;58.08;;
35969;SDS011;22448;51.298;6.430;2023-02-12T03:42:58;115.68;;;56.72;;
35969;SDS011;22448;51.298;6.430;2023-02-12T03:45:50;119.55;;;56.90;;
35969;SDS011;22448;51.298;6.430;2023-02-12T03:48:41;113.25;;;57.17;;
35969;SDS011;22448;51.298;6.430;2023-02-12T03:53:56;122.85;;;55.75;;
35969;SDS011;22448;51.298;6.430;2023-02-12T03:56:31;113.07;;;56.15;;
35969;SDS011;22448;51.298;6.430;2023-02-12T03:58:58;115.30;;;55.63;;
35969;SDS011;22448;51.298;6.430;2023-02-12T04:01:26;123.80;;;57.28;;
35969;SDS011;22448;51.298;6.430;2023-02-12T04:03:54;116.80;;;57.83;;
35969;SDS011;22448;51.298;6.430;2023-02-12T04:06:25;113.07;;;57.88;;
35969;SDS011;22448;51.298;6.430;2023-02-12T04:08:54;124.85;;;61.15;;
35969;SDS011;22448;51.298;6.430;2023-02-12T04:11:30;114.67;;;57.53;;
35969;SDS011;22448;51.298;6.430;2023-02-12T04:17:07;110.32;;;56.08;;
35969;SDS011;22448;51.298;6.430;2023-02-12T04:22:29;118.45;;;57.63;;
35969;SDS011;22448;51.298;6.430;2023-02-12T04:27:53;110.70;;;56.72;;
35969;SDS011;22448;51.298;6.430;2023-02-12T04:30:36;109.28;;;55.60;;
35969;SDS011;22448;51.298;6.430;2023-02-12T04:33:13;108.03;;;53.15;;
35969;SDS011;22448;51.298;6.430;2023-02-12T04:35:53;107.25;;;54.97;;
35969;SDS011;22448;51.298;6.430;2023-02-12T04:38:28;103.57;;;52.35;;
35969;SDS011;22448;51.298;6.430;2023-02-12T04:41:00;110.30;;;52.85;;
35969;SDS011;22448;51.298;6.430;2023-02-12T04:43:29;96.50;;;52.15;;
35969;SDS011;22448;51.298;6.430;2023-02-12T04:46:02;110.65;;;54.33;;
35969;SDS011;22448;51.298;6.430;2023-02-12T04:48:30;108.10;;;54.13;;
35969;SDS011;22448;51.298;6.430;2023-02-12T04:50:57;104.07;;;53.15;;
35969;SDS011;22448;51.298;6.430;2023-02-12T04:53:24;111.95;;;53.03;;
35969;SDS011;22448;51.298;6.430;2023-02-12T04:55:51;110.03;;;52.25;;
35969;SDS011;22448;51.298;6.430;2023-02-12T04:58:19;96.22;;;51.88;;
35969;SDS011;22448;51.298;6.430;2023-02-12T05:00:46;106.30;;;54.63;;
35969;SDS011;22448;51.298;6.430;2023-02-12T05:03:13;99.18;;;52.55;;
35969;SDS011;22448;51.298;6.430;2023-02-12T05:05:40;106.03;;;52.20;;
35969;SDS011;22448;51.298;6.430;2023-02-12T05:08:07;102.65;;;51.22;;
35969;SDS011;22448;51.298;6.430;2023-02-12T05:10:34;103.15;;;51.90;;
35969;SDS011;22448;51.298;6.430;2023-02-12T05:13:01;103.88;;;52.35;;
35969;SDS011;22448;51.298;6.430;2023-02-12T05:15:28;98.82;;;50.22;;
35969;SDS011;22448;51.298;6.430;2023-02-12T05:17:55;97.93;;;51.08;;
35969;SDS011;22448;51.298;6.430;2023-02-12T05:20:22;107.38;;;53.28;;
35969;SDS011;22448;51.298;6.430;2023-02-12T05:22:52;102.47;;;52.90;;
35969;SDS011;22448;51.298;6.430;2023-02-12T05:25:19;101.13;;;52.97;;
35969;SDS011;22448;51.298;6.430;2023-02-12T05:27:46;97.50;;;53.03;;
35969;SDS011;22448;51.298;6.430;2023-02-12T05:30:13;107.65;;;53.53;;
35969;SDS011;22448;51.298;6.430;2023-02-12T05:32:40;106.60;;;54.47;;
35969;SDS011;22448;51.298;6.430;2023-02-12T05:35:07;111.13;;;55.72;;
35969;SDS011;22448;51.298;6.430;2023-02-12T05:37:35;109.55;;;53.50;;
35969;SDS011;22448;51.298;6.430;2023-02-12T05:40:05;112.57;;;55.38;;
35969;SDS011;22448;51.298;6.430;2023-02-12T05:42:34;103.75;;;53.83;;
35969;SDS011;22448;51.298;6.430;2023-02-12T05:45:01;101.10;;;54.10;;
35969;SDS011;22448;51.298;6.430;2023-02-12T05:47:28;102.13;;;52.80;;
35969;SDS011;22448;51.298;6.430;2023-02-12T05:49:55;90.72;;;50.40;;
35969;SDS011;22448;51.298;6.430;2023-02-12T05:52:22;96.80;;;50.42;;
35969;SDS011;22448;51.298;6.430;2023-02-12T05:54:49;99.28;;;51.67;;
35969;SDS011;22448;51.298;6.430;2023-02-12T05:57:16;104.22;;;50.47;;
35969;SDS011;22448;51.298;6.430;2023-02-12T05:59:43;97.18;;;49.40;;
35969;SDS011;22448;51.298;6.430;2023-02-12T06:02:10;103.03;;;53.05;;
35969;SDS011;22448;51.298;6.430;2023-02-12T06:04:37;108.35;;;52.38;;
35969;SDS011;22448;51.298;6.430;2023-02-12T06:07:04;102.65;;;52.53;;
35969;SDS011;22448;51.298;6.430;2023-02-12T06:09:33;105.97;;;53.15;;
35969;SDS011;22448;51.298;6.430;2023-02-12T06:12:00;98.93;;;51.15;;
35969;SDS011;22448;51.298;6.430;2023-02-12T06:14:27;103.05;;;52.67;;
35969;SDS011;22448;51.298;6.430;2023-02-12T06:16:57;100.15;;;51.90;;
35969;SDS011;22448;51.298;6.430;2023-02-12T06:19:24;105.43;;;52.20;;
35969;SDS011;22448;51.298;6.430;2023-02-12T06:21:51;104.45;;;52.63;;
35969;SDS011;22448;51.298;6.430;2023-02-12T06:24:18;101.15;;;52.67;;
35969;SDS011;22448;51.298;6.430;2023-02-12T06:26:47;98.88;;;49.80;;
35969;SDS011;22448;51.298;6.430;2023-02-12T06:29:16;99.95;;;52.42;;
35969;SDS011;22448;51.298;6.430;2023-02-12T06:31:44;103.55;;;53.90;;
35969;SDS011;22448;51.298;6.430;2023-02-12T06:34:11;98.53;;;51.22;;
35969;SDS011;22448;51.298;6.430;2023-02-12T06:36:40;99.72;;;53.08;;
35969;SDS011;22448;51.298;6.430;2023-02-12T06:39:10;103.10;;;50.90;;
35969;SDS011;22448;51.298;6.430;2023-02-12T06:41:39;99.38;;;52.10;;
35969;SDS011;22448;51.298;6.430;2023-02-12T06:44:06;106.72;;;53.63;;
35969;SDS011;22448;51.298;6.430;2023-02-12T06:46:33;107.47;;;52.45;;
35969;SDS011;22448;51.298;6.430;2023-02-12T06:49:01;98.28;;;52.50;;
35969;SDS011;22448;51.298;6.430;2023-02-12T06:51:28;105.70;;;52.65;;
35969;SDS011;22448;51.298;6.430;2023-02-12T06:53:57;104.80;;;53.50;;
35969;SDS011;22448;51.298;6.430;2023-02-12T06:56:24;102.07;;;50.75;;
35969;SDS011;22448;51.298;6.430;2023-02-12T06:58:55;107.80;;;53.58;;
35969;SDS011;22448;51.298;6.430;2023-02-12T07:01:24;103.10;;;52.85;;
35969;SDS011;22448;51.298;6.430;2023-02-12T07:03:54;99.00;;;52.05;;
35969;SDS011;22448;51.298;6.430;2023-02-12T07:06:23;99.05;;;51.58;;
35969;SDS011;22448;51.298;6.430;2023-02-12T07:08:50;102.05;;;51.50;;
35969;SDS011;22448;51.298;6.430;2023-02-12T07:11:17;106.40;;;53.90;;
35969;SDS011;22448;51.298;6.430;2023-02-12T07:13:49;103.43;;;52.88;;
35969;SDS011;22448;51.298;6.430;2023-02-12T07:16:15;107.32;;;53.40;;
35969;SDS011;22448;51.298;6.430;2023-02-12T07:18:43;99.65;;;51.40;;
35969;SDS011;22448;51.298;6.430;2023-02-12T07:21:11;98.68;;;50.88;;
35969;SDS011;22448;51.298;6.430;2023-02-12T07:23:39;100.50;;;52.53;;
35969;SDS011;22448;51.298;6.430;2023-02-12T07:26:08;104.18;;;52.78;;
35969;SDS011;22448;51.298;6.430;2023-02-12T07:28:37;105.85;;;53.30;;
35969;SDS011;22448;51.298;6.430;2023-02-12T07:31:09;107.93;;;54.35;;
35969;SDS011;22448;51.298;6.430;2023-02-12T07:36:06;97.97;;;50.90;;
35969;SDS011;22448;51.298;6.430;2023-02-12T07:38:36;102.55;;;53.80;;
35969;SDS011;22448;51.298;6.430;2023-02-12T07:41:26;103.20;;;54.92;;
35969;SDS011;22448;51.298;6.430;2023-02-12T07:43:57;110.35;;;55.97;;
35969;SDS011;22448;51.298;6.430;2023-02-12T07:46:30;107.18;;;54.53;;
35969;SDS011;22448;51.298;6.430;2023-02-12T07:49:00;104.47;;;52.00;;
35969;SDS011;22448;51.298;6.430;2023-02-12T07:51:29;138.27;;;69.78;;
35969;SDS011;22448;51.298;6.430;2023-02-12T07:53:58;115.45;;;61.25;;
35969;SDS011;22448;51.298;6.430;2023-02-12T07:56:29;116.10;;;57.33;;
35969;SDS011;22448;51.298;6.430;2023-02-12T07:59:00;101.88;;;53.88;;
35969;SDS011;22448;51.298;6.430;2023-02-12T08:01:31;102.75;;;53.40;;
35969;SDS011;22448;51.298;6.430;2023-02-12T08:04:00;106.60;;;53.42;;
35969;SDS011;22448;51.298;6.430;2023-02-12T08:06:30;100.65;;;52.65;;
35969;SDS011;22448;51.298;6.430;2023-02-12T08:09:00;104.68;;;52.97;;
35969;SDS011;22448;51.298;6.430;2023-02-12T08:11:29;108.72;;;54.13;;
35969;SDS011;22448;51.298;6.430;2023-02-12T08:13:57;112.10;;;55.05;;
35969;SDS011;22448;51.298;6.430;2023-02-12T08:16:25;118.78;;;56.72;;
35969;SDS011;22448;51.298;6.430;2023-02-12T08:18:54;108.28;;;55.35;;
35969;SDS011;22448;51.298;6.430;2023-02-12T08:21:32;113.88;;;53.97;;
35969;SDS011;22448;51.298;6.430;2023-02-12T08:24:00;109.60;;;56.17;;
35969;SDS011;22448;51.298;6.430;2023-02-12T08:26:35;108.80;;;57.63;;
35969;SDS011;22448;51.298;6.430;2023-02-12T08:29:10;136.20;;;64.10;;
35969;SDS011;22448;51.298;6.430;2023-02-12T08:31:43;151.57;;;75.38;;
35969;SDS011;22448;51.298;6.430;2023-02-12T08:36:44;154.23;;;75.20;;
35969;SDS011;22448;51.298;6.430;2023-02-12T08:39:12;135.10;;;69.25;;
35969;SDS011;22448;51.298;6.430;2023-02-12T08:41:40;138.02;;;69.70;;
35969;SDS011;22448;51.298;6.430;2023-02-12T08:44:10;129.63;;;62.45;;
35969;SDS011;22448;51.298;6.430;2023-02-12T08:46:39;117.50;;;58.85;;
35969;SDS011;22448;51.298;6.430;2023-02-12T08:49:13;102.13;;;55.17;;
35969;SDS011;22448;51.298;6.430;2023-02-12T08:51:44;113.15;;;57.10;;
35969;SDS011;22448;51.298;6.430;2023-02-12T08:54:15;109.50;;;57.33;;
35969;SDS011;22448;51.298;6.430;2023-02-12T08:56:44;117.13;;;58.08;;
35969;SDS011;22448;51.298;6.430;2023-02-12T08:59:11;110.18;;;57.55;;
35969;SDS011;22448;51.298;6.430;2023-02-12T09:01:41;112.00;;;56.35;;
35969;SDS011;22448;51.298;6.430;2023-02-12T09:04:16;111.05;;;56.88;;
35969;SDS011;22448;51.298;6.430;2023-02-12T09:06:47;104.00;;;57.22;;
35969;SDS011;22448;51.298;6.430;2023-02-12T09:09:15;101.43;;;54.80;;
35969;SDS011;22448;51.298;6.430;2023-02-12T09:11:42;105.72;;;53.35;;
35969;SDS011;22448;51.298;6.430;2023-02-12T09:14:13;106.43;;;54.28;;
35969;SDS011;22448;51.298;6.430;2023-02-12T09:16:41;105.30;;;54.28;;
35969;SDS011;22448;51.298;6.430;2023-02-12T09:19:10;112.60;;;55.90;;
35969;SDS011;22448;51.298;6.430;2023-02-12T09:21:38;110.53;;;55.90;;
35969;SDS011;22448;51.298;6.430;2023-02-12T09:24:06;106.22;;;54.88;;
35969;SDS011;22448;51.298;6.430;2023-02-12T09:26:33;104.63;;;55.20;;
35969;SDS011;22448;51.298;6.430;2023-02-12T09:29:01;105.35;;;54.38;;
35969;SDS011;22448;51.298;6.430;2023-02-12T09:31:29;105.07;;;54.97;;
35969;SDS011;22448;51.298;6.430;2023-02-12T09:34:01;101.32;;;54.35;;
35969;SDS011;22448;51.298;6.430;2023-02-12T09:36:32;99.00;;;53.08;;
35969;SDS011;22448;51.298;6.430;2023-02-12T09:38:59;99.05;;;54.25;;
35969;SDS011;22448;51.298;6.430;2023-02-12T09:41:48;105.53;;;55.35;;
35969;SDS011;22448;51.298;6.430;2023-02-12T09:44:31;119.18;;;59.83;;
35969;SDS011;22448;51.298;6.430;2023-02-12T09:47:25;113.50;;;55.58;;
35969;SDS011;22448;51.298;6.430;2023-02-12T09:50:09;100.50;;;53.78;;
35969;SDS011;22448;51.298;6.430;2023-02-12T09:52:39;102.88;;;55.88;;
35969;SDS011;22448;51.298;6.430;2023-02-12T09:55:09;100.13;;;54.08;;
35969;SDS011;22448;51.298;6.430;2023-02-12T09:57:42;92.90;;;52.22;;
35969;SDS011;22448;51.298;6.430;2023-02-12T10:02:49;99.68;;;52.53;;
35969;SDS011;22448;51.298;6.430;2023-02-12T10:05:23;98.13;;;52.05;;
35969;SDS011;22448;51.298;6.430;2023-02-12T10:27:17;96.72;;;53.10;;
35969;SDS011;22448;51.298;6.430;2023-02-12T10:29:57;100.32;;;53.50;;
35969;SDS011;22448;51.298;6.430;2023-02-12T10:32:26;93.32;;;53.08;;
35969;SDS011;22448;51.298;6.430;2023-02-12T10:34:59;95.45;;;53.42;;
35969;SDS011;22448;51.298;6.430;2023-02-12T10:37:39;97.63;;;52.17;;
35969;SDS011;22448;51.298;6.430;2023-02-12T10:42:58;99.22;;;54.38;;
35969;SDS011;22448;51.298;6.430;2023-02-12T10:45:32;97.75;;;52.22;;
35969;SDS011;22448;51.298;6.430;2023-02-12T10:48:03;96.60;;;55.13;;
35969;SDS011;22448;51.298;6.430;2023-02-12T10:56:18;100.32;;;51.60;;
35969;SDS011;22448;51.298;6.430;2023-02-12T11:01:24;89.93;;;51.67;;
35969;SDS011;22448;51.298;6.430;2023-02-12T11:03:57;93.47;;;52.13;;
35969;SDS011;22448;51.298;6.430;2023-02-12T11:06:29;92.93;;;51.05;;
35969;SDS011;22448;51.298;6.430;2023-02-12T11:08:57;90.47;;;52.03;;
35969;SDS011;22448;51.298;6.430;2023-02-12T11:11:26;97.65;;;50.65;;
35969;SDS011;22448;51.298;6.430;2023-02-12T11:14:03;94.25;;;50.58;;
35969;SDS011;22448;51.298;6.430;2023-02-12T11:16:42;92.70;;;47.92;;
35969;SDS011;22448;51.298;6.430;2023-02-12T11:19:23;93.85;;;51.30;;
35969;SDS011;22448;51.298;6.430;2023-02-12T11:22:10;90.25;;;49.58;;
35969;SDS011;22448;51.298;6.430;2023-02-12T11:24:44;87.35;;;48.70;;
35969;SDS011;22448;51.298;6.430;2023-02-12T11:29:42;87.72;;;49.83;;
35969;SDS011;22448;51.298;6.430;2023-02-12T11:32:16;81.00;;;47.05;;
35969;SDS011;22448;51.298;6.430;2023-02-12T11:35:00;84.70;;;47.50;;
35969;SDS011;22448;51.298;6.430;2023-02-12T11:37:41;86.38;;;47.45;;
35969;SDS011;22448;51.298;6.430;2023-02-12T11:40:14;92.05;;;47.95;;
35969;SDS011;22448;51.298;6.430;2023-02-12T11:42:46;84.47;;;45.30;;
35969;SDS011;22448;51.298;6.430;2023-02-12T11:45:16;83.65;;;47.72;;
35969;SDS011;22448;51.298;6.430;2023-02-12T11:47:46;86.70;;;48.05;;
35969;SDS011;22448;51.298;6.430;2023-02-12T11:50:20;79.63;;;47.33;;
35969;SDS011;22448;51.298;6.430;2023-02-12T11:52:49;86.20;;;47.28;;
35969;SDS011;22448;51.298;6.430;2023-02-12T11:55:28;84.38;;;47.22;;
35969;SDS011;22448;51.298;6.430;2023-02-12T11:58:04;79.47;;;45.35;;
35969;SDS011;22448;51.298;6.430;2023-02-12T12:22:48;79.63;;;43.85;;
35969;SDS011;22448;51.298;6.430;2023-02-12T12:33:20;77.82;;;43.33;;
35969;SDS011;22448;51.298;6.430;2023-02-12T12:35:53;77.90;;;44.00;;
35969;SDS011;22448;51.298;6.430;2023-02-12T12:38:43;76.63;;;43.65;;
35969;SDS011;22448;51.298;6.430;2023-02-12T12:41:17;80.43;;;43.83;;
35969;SDS011;22448;51.298;6.430;2023-02-12T12:46:47;73.85;;;42.60;;
35969;SDS011;22448;51.298;6.430;2023-02-12T12:49:29;79.57;;;44.47;;
35969;SDS011;22448;51.298;6.430;2023-02-12T12:52:11;67.03;;;40.58;;
35969;SDS011;22448;51.298;6.430;2023-02-12T12:58:12;63.65;;;40.28;;
35969;SDS011;22448;51.298;6.430;2023-02-12T13:06:21;62.95;;;37.60;;
35969;SDS011;22448;51.298;6.430;2023-02-12T13:11:42;61.88;;;37.20;;
35969;SDS011;22448;51.298;6.430;2023-02-12T13:17:15;64.13;;;36.67;;
35969;SDS011;22448;51.298;6.430;2023-02-12T13:25:38;60.30;;;33.88;;
35969;SDS011;22448;51.298;6.430;2023-02-12T13:28:12;62.55;;;37.03;;
35969;SDS011;22448;51.298;6.430;2023-02-12T13:30:45;64.55;;;37.13;;
35969;SDS011;22448;51.298;6.430;2023-02-12T13:33:20;54.80;;;34.80;;
35969;SDS011;22448;51.298;6.430;2023-02-12T13:35:52;61.60;;;35.15;;
35969;SDS011;22448;51.298;6.430;2023-02-12T13:38:33;54.95;;;33.38;;
35969;SDS011;22448;51.298;6.430;2023-02-12T13:41:06;55.45;;;33.53;;
35969;SDS011;22448;51.298;6.430;2023-02-12T13:46:43;58.33;;;32.63;;
35969;SDS011;22448;51.298;6.430;2023-02-12T13:49:43;61.42;;;33.13;;
35969;SDS011;22448;51.298;6.430;2023-02-12T13:52:18;61.33;;;34.78;;
35969;SDS011;22448;51.298;6.430;2023-02-12T13:55:03;54.38;;;31.75;;
35969;SDS011;22448;51.298;6.430;2023-02-12T13:57:42;62.33;;;32.97;;
35969;SDS011;22448;51.298;6.430;2023-02-12T14:03:14;60.67;;;34.17;;
35969;SDS011;22448;51.298;6.430;2023-02-12T14:05:42;58.58;;;34.20;;
35969;SDS011;22448;51.298;6.430;2023-02-12T14:08:20;57.63;;;35.75;;
35969;SDS011;22448;51.298;6.430;2023-02-12T14:11:08;58.95;;;33.80;;
35969;SDS011;22448;51.298;6.430;2023-02-12T14:13:46;65.35;;;35.60;;
35969;SDS011;22448;51.298;6.430;2023-02-12T14:16:20;71.00;;;36.78;;
35969;SDS011;22448;51.298;6.430;2023-02-12T14:22:08;61.75;;;34.42;;
35969;SDS011;22448;51.298;6.430;2023-02-12T14:24:54;74.50;;;40.72;;
35969;SDS011;22448;51.298;6.430;2023-02-12T14:27:27;70.85;;;40.00;;
35969;SDS011;22448;51.298;6.430;2023-02-12T14:37:57;63.42;;;35.13;;
35969;SDS011;22448;51.298;6.430;2023-02-12T14:51:27;75.72;;;39.60;;
35969;SDS011;22448;51.298;6.430;2023-02-12T14:54:16;100.13;;;56.00;;
35969;SDS011;22448;51.298;6.430;2023-02-12T14:56:50;67.40;;;36.43;;
35969;SDS011;22448;51.298;6.430;2023-02-12T14:59:22;66.63;;;38.95;;
35969;SDS011;22448;51.298;6.430;2023-02-12T15:01:51;66.40;;;38.83;;
35969;SDS011;22448;51.298;6.430;2023-02-12T15:04:23;68.10;;;36.22;;
35969;SDS011;22448;51.298;6.430;2023-02-12T15:06:56;65.68;;;37.00;;
35969;SDS011;22448;51.298;6.430;2023-02-12T15:10:07;77.70;;;40.63;;
35969;SDS011;22448;51.298;6.430;2023-02-12T15:12:39;77.47;;;40.03;;
35969;SDS011;22448;51.298;6.430;2023-02-12T15:18:03;75.93;;;39.55;;
35969;SDS011;22448;51.298;6.430;2023-02-12T15:20:50;77.60;;;40.08;;
35969;SDS011;22448;51.298;6.430;2023-02-12T15:23:40;73.90;;;40.17;;
35969;SDS011;22448;51.298;6.430;2023-02-12T15:26:13;77.57;;;39.63;;
35969;SDS011;22448;51.298;6.430;2023-02-12T15:28:45;80.07;;;42.03;;
35969;SDS011;22448;51.298;6.430;2023-02-12T15:31:14;78.78;;;41.45;;
35969;SDS011;22448;51.298;6.430;2023-02-12T15:33:44;79.75;;;42.20;;
35969;SDS011;22448;51.298;6.430;2023-02-12T15:36:18;72.55;;;39.83;;
35969;SDS011;22448;51.298;6.430;2023-02-12T15:41:27;74.20;;;39.97;;
35969;SDS011;22448;51.298;6.430;2023-02-12T15:44:01;75.05;;;39.80;;
35969;SDS011;22448;51.298;6.430;2023-02-12T15:46:51;78.00;;;40.77;;
35969;SDS011;22448;51.298;6.430;2023-02-12T15:49:30;80.70;;;43.03;;
35969;SDS011;22448;51.298;6.430;2023-02-12T15:52:00;85.72;;;41.38;;
35969;SDS011;22448;51.298;6.430;2023-02-12T15:54:32;75.25;;;39.85;;
35969;SDS011;22448;51.298;6.430;2023-02-12T15:57:00;80.43;;;43.80;;
35969;SDS011;22448;51.298;6.430;2023-02-12T15:59:34;82.32;;;42.10;;
35969;SDS011;22448;51.298;6.430;2023-02-12T16:02:01;81.00;;;42.33;;
35969;SDS011;22448;51.298;6.430;2023-02-12T16:04:30;88.72;;;42.60;;
35969;SDS011;22448;51.298;6.430;2023-02-12T16:07:02;85.53;;;42.72;;
35969;SDS011;22448;51.298;6.430;2023-02-12T16:09:30;88.47;;;47.25;;
35969;SDS011;22448;51.298;6.430;2023-02-12T16:11:59;93.55;;;47.85;;
35969;SDS011;22448;51.298;6.430;2023-02-12T16:17:45;83.28;;;43.42;;
35969;SDS011;22448;51.298;6.430;2023-02-12T16:22:44;89.22;;;45.70;;
35969;SDS011;22448;51.298;6.430;2023-02-12T16:25:32;86.40;;;44.88;;
35969;SDS011;22448;51.298;6.430;2023-02-12T16:28:01;88.65;;;45.75;;
35969;SDS011;22448;51.298;6.430;2023-02-12T16:30:35;84.97;;;45.65;;
35969;SDS011;22448;51.298;6.430;2023-02-12T16:36:01;85.07;;;43.85;;
35969;SDS011;22448;51.298;6.430;2023-02-12T16:38:37;81.70;;;44.63;;
35969;SDS011;22448;51.298;6.430;2023-02-12T16:46:29;78.10;;;42.90;;
35969;SDS011;22448;51.298;6.430;2023-02-12T16:48:58;88.93;;;45.65;;
35969;SDS011;22448;51.298;6.430;2023-02-12T16:51:28;82.13;;;44.22;;
35969;SDS011;22448;51.298;6.430;2023-02-12T16:54:00;79.55;;;42.30;;
35969;SDS011;22448;51.298;6.430;2023-02-12T16:56:29;88.38;;;48.60;;
35969;SDS011;22448;51.298;6.430;2023-02-12T16:59:00;85.63;;;43.88;;
35969;SDS011;22448;51.298;6.430;2023-02-12T17:01:32;84.78;;;44.45;;
35969;SDS011;22448;51.298;6.430;2023-02-12T17:04:03;85.25;;;44.03;;
35969;SDS011;22448;51.298;6.430;2023-02-12T17:06:32;81.20;;;43.70;;
35969;SDS011;22448;51.298;6.430;2023-02-12T17:08:59;82.93;;;42.75;;
35969;SDS011;22448;51.298;6.430;2023-02-12T17:11:26;79.40;;;43.05;;
35969;SDS011;22448;51.298;6.430;2023-02-12T17:13:54;83.15;;;43.97;;
35969;SDS011;22448;51.298;6.430;2023-02-12T17:16:21;81.72;;;45.25;;
35969;SDS011;22448;51.298;6.430;2023-02-12T17:18:58;82.32;;;43.38;;
35969;SDS011;22448;51.298;6.430;2023-02-12T17:21:30;82.50;;;45.72;;
35969;SDS011;22448;51.298;6.430;2023-02-12T17:24:17;95.05;;;47.42;;
35969;SDS011;22448;51.298;6.430;2023-02-12T17:26:48;81.88;;;44.83;;
35969;SDS011;22448;51.298;6.430;2023-02-12T17:29:16;83.85;;;45.58;;
35969;SDS011;22448;51.298;6.430;2023-02-12T17:31:44;77.97;;;44.95;;
35969;SDS011;22448;51.298;6.430;2023-02-12T17:34:11;80.60;;;46.22;;
35969;SDS011;22448;51.298;6.430;2023-02-12T17:36:39;84.55;;;43.47;;
35969;SDS011;22448;51.298;6.430;2023-02-12T17:39:07;85.05;;;43.58;;
35969;SDS011;22448;51.298;6.430;2023-02-12T17:41:36;85.13;;;46.53;;